Time;durP1;ratioP1;P1;durP2;ratioP2;P2;SDS_P1;SDS_P2;PMS_P1;PMS_P2;Temp;Humidity;BMP_temperature;BMP_pressure;BME280_temperature;BME280_humidity;BME280_pressure;Samples;Min_cycle;Max_cycle;Signal;HPM_P1;HPM_P2
2023/10/22 00:00:26;;;;;;;4.80;2.60;;;12.70;88.70;;;14.41;59.65;96619.53;5011648;28;20053;-47
2023/10/22 00:02:54;;;;;;;3.58;2.50;;;12.60;88.50;;;14.39;59.73;96618.91;5011048;28;20445;-44
2023/10/22 00:05:21;;;;;;;3.95;2.75;;;12.60;88.80;;;14.36;59.73;96627.34;5011864;28;20045;-44
2023/10/22 00:07:49;;;;;;;2.60;2.25;;;12.60;89.10;;;14.35;59.94;96628.41;5011876;28;20049;-45
2023/10/22 00:10:17;;;;;;;2.92;2.63;;;12.60;89.10;;;14.29;59.87;96622.03;5010849;28;20070;-46
2023/10/22 00:12:44;;;;;;;3.45;2.53;;;12.50;89.30;;;14.29;59.83;96622.03;5011493;28;20042;-43
2023/10/22 00:15:12;;;;;;;4.80;2.55;;;12.50;89.20;;;14.29;59.73;96624.72;5008332;28;20049;-46
2023/10/22 00:17:41;;;;;;;4.80;2.75;;;12.50;89.30;;;14.29;59.69;96626.56;5010076;28;20050;-45
2023/10/22 00:20:10;;;;;;;3.35;2.60;;;12.50;88.90;;;14.30;59.56;96626.34;5011524;28;20045;-45
2023/10/22 00:22:37;;;;;;;5.55;2.55;;;12.50;88.40;;;14.30;59.72;96633.56;5011652;28;20042;-47
2023/10/22 00:25:06;;;;;;;3.22;2.75;;;12.50;87.80;;;14.28;59.66;96639.13;5011438;28;20041;-47
2023/10/22 00:27:34;;;;;;;2.67;2.25;;;12.60;87.60;;;14.27;59.51;96636.63;5011295;28;20062;-47
2023/10/22 00:30:01;;;;;;;4.00;2.40;;;12.60;87.30;;;14.27;59.50;96642.00;5010568;28;20186;-45
2023/10/22 00:32:29;;;;;;;2.58;2.30;;;12.60;86.90;;;14.27;59.43;96645.50;5010095;28;20053;-44
2023/10/22 00:34:57;;;;;;;4.20;2.92;;;12.70;86.50;;;14.29;59.59;96659.50;5010505;28;20046;-47
2023/10/22 00:37:25;;;;;;;3.38;2.60;;;12.70;86.20;;;14.30;59.40;96661.16;5009556;28;20053;-46
2023/10/22 00:39:53;;;;;;;4.55;2.70;;;12.70;86.00;;;14.32;59.39;96660.94;5011048;28;20405;-46
2023/10/22 00:42:20;;;;;;;3.13;2.60;;;12.70;86.10;;;14.36;59.40;96667.53;5011331;28;20125;-46
2023/10/22 00:44:48;;;;;;;4.68;2.72;;;12.70;85.90;;;14.34;59.32;96662.38;5003372;28;20045;-44
2023/10/22 00:47:16;;;;;;;4.45;2.80;;;12.70;86.00;;;14.35;59.06;96663.22;5011126;28;20102;-44
2023/10/22 00:49:44;;;;;;;3.85;2.58;;;12.70;85.90;;;14.35;59.01;96665.91;5001446;28;20057;-43
2023/10/22 00:52:15;;;;;;;4.47;3.00;;;12.60;85.70;;;14.34;58.98;96669.59;5010316;28;20045;-45
2023/10/22 00:54:43;;;;;;;4.95;2.70;;;12.60;85.80;;;14.32;58.93;96667.09;5010336;28;20062;-45
2023/10/22 00:57:12;;;;;;;2.75;2.33;;;12.60;85.40;;;14.30;59.08;96673.72;5001659;28;20045;-44
2023/10/22 00:59:40;;;;;;;3.30;2.17;;;12.50;85.80;;;14.27;58.96;96674.13;5009574;28;20049;-44
2023/10/22 01:02:07;;;;;;;4.00;2.55;;;12.50;86.00;;;14.26;58.96;96675.16;5001794;28;20498;-43
2023/10/22 01:04:36;;;;;;;2.75;2.55;;;12.50;86.00;;;14.23;58.70;96678.25;5001765;28;20061;-46
2023/10/22 01:07:06;;;;;;;6.45;2.80;;;12.40;86.00;;;14.18;59.04;96676.19;5009801;28;20060;-47
2023/10/22 01:09:34;;;;;;;3.60;2.20;;;12.40;86.50;;;14.13;58.91;96684.88;5001622;28;20057;-45
2023/10/22 01:12:04;;;;;;;2.92;2.28;;;12.30;86.70;;;14.03;59.25;96679.09;5010398;28;20080;-43
2023/10/22 01:14:32;;;;;;;3.53;2.40;;;12.20;87.00;;;13.94;59.42;96685.69;5007462;28;20050;-44
2023/10/22 01:17:01;;;;;;;4.22;2.20;;;12.10;87.80;;;13.89;59.41;96682.81;5010855;28;20398;-44
2023/10/22 01:19:28;;;;;;;2.60;1.95;;;12.00;88.10;;;13.77;59.84;96682.59;5009217;28;20053;-44
2023/10/22 01:21:57;;;;;;;4.25;2.38;;;11.90;88.70;;;13.74;59.78;96686.47;5000939;28;20054;-44
2023/10/22 01:24:25;;;;;;;4.30;2.38;;;11.90;89.10;;;13.67;59.98;96677.66;5010960;28;20072;-45
2023/10/22 01:26:53;;;;;;;3.65;2.58;;;11.90;89.10;;;13.66;60.09;96684.00;5009542;28;20057;-44
2023/10/22 01:29:21;;;;;;;3.90;2.20;;;11.90;88.90;;;13.69;60.09;96688.16;5010494;28;20052;-47
2023/10/22 01:31:49;;;;;;;4.30;2.60;;;11.90;88.70;;;13.74;60.03;96685.66;5009934;28;20038;-46
2023/10/22 01:34:16;;;;;;;4.97;2.13;;;12.00;87.90;;;13.74;59.83;96688.34;5010857;28;20046;-45
2023/10/22 01:36:45;;;;;;;3.92;2.35;;;12.00;87.30;;;13.76;59.84;96686.28;5010784;28;20045;-44
2023/10/22 01:39:14;;;;;;;5.97;2.30;;;12.00;86.90;;;13.70;59.91;96679.91;5008998;28;20516;-44
2023/10/22 01:41:43;;;;;;;2.63;2.17;;;11.90;87.50;;;13.71;59.66;96681.56;5010688;28;20046;-45
2023/10/22 01:44:11;;;;;;;6.32;2.33;;;11.90;87.10;;;13.68;59.70;96684.63;5010244;28;20054;-47
2023/10/22 01:46:38;;;;;;;3.60;2.67;;;11.90;87.70;;;13.69;59.62;96691.66;5010999;28;20053;-44
2023/10/22 01:49:06;;;;;;;3.55;2.15;;;11.90;87.60;;;13.71;59.57;96683.41;5009359;28;20046;-46
2023/10/22 01:51:33;;;;;;;4.07;2.20;;;11.90;87.10;;;13.72;59.51;96683.19;5011634;28;20068;-45
2023/10/22 01:54:01;;;;;;;3.03;2.05;;;11.90;86.80;;;13.67;59.53;96688.34;5013180;28;20395;-44
2023/10/22 01:56:30;;;;;;;2.78;2.08;;;11.90;87.10;;;13.61;59.79;96691.84;5014206;28;20053;-45
2023/10/22 01:58:58;;;;;;;2.88;2.00;;;11.80;87.90;;;13.49;60.25;96688.94;5012809;28;20514;-42
2023/10/22 02:01:26;;;;;;;4.72;2.67;;;11.70;88.60;;;13.50;60.12;96687.09;5012866;28;20509;-42
2023/10/22 02:03:54;;;;;;;3.92;2.67;;;11.70;89.00;;;13.48;60.25;96684.63;5004792;28;20409;-42
2023/10/22 02:06:24;;;;;;;6.15;3.13;;;11.80;88.50;;;13.48;60.10;96695.31;5014154;28;20049;-47
2023/10/22 02:08:51;;;;;;;3.60;2.30;;;11.80;88.60;;;13.44;60.31;96694.06;5012451;28;20053;-45
2023/10/22 02:11:19;;;;;;;2.90;2.22;;;11.70;88.10;;;13.47;60.08;96695.50;5012970;28;20403;-47
2023/10/22 02:13:47;;;;;;;3.03;2.58;;;11.70;88.50;;;13.48;60.10;96697.97;5014240;28;20437;-44
2023/10/22 02:16:14;;;;;;;3.72;2.47;;;11.70;88.00;;;13.49;60.09;96705.00;5013053;28;20054;-46
2023/10/22 02:18:42;;;;;;;3.22;2.58;;;11.70;88.10;;;13.46;59.94;96705.38;5013556;28;20041;-43
2023/10/22 02:21:10;;;;;;;3.35;2.67;;;11.70;88.00;;;13.41;60.12;96701.66;5012367;28;20042;-46
2023/10/22 02:23:39;;;;;;;3.60;2.30;;;11.60;88.00;;;13.41;60.05;96707.81;5012487;28;20426;-45
2023/10/22 02:26:09;;;;;;;3.60;2.33;;;11.60;88.10;;;13.35;60.09;96706.78;5013680;28;20084;-47
2023/10/22 02:28:37;;;;;;;4.35;2.70;;;11.60;88.20;;;13.30;60.05;96711.09;5013611;28;20053;-44
2023/10/22 02:31:04;;;;;;;3.13;2.58;;;11.50;88.60;;;13.24;60.32;96711.84;5012790;28;20068;-43
2023/10/22 02:33:33;;;;;;;3.47;2.30;;;11.50;88.10;;;13.23;60.27;96712.91;5012514;28;20453;-46
2023/10/22 02:36:02;;;;;;;2.78;2.22;;;11.50;88.70;;;13.15;60.35;96712.03;5012257;28;20038;-46
2023/10/22 02:38:30;;;;;;;4.05;2.17;;;11.40;88.90;;;13.11;60.36;96718.00;5013531;28;20413;-42
2023/10/22 02:40:58;;;;;;;3.97;2.28;;;11.30;89.20;;;13.13;60.39;96715.94;5005451;28;20038;-45
2023/10/22 02:43:26;;;;;;;4.53;2.43;;;11.40;88.70;;;13.06;60.48;96710.56;5012871;28;20064;-46
2023/10/22 02:45:55;;;;;;;3.45;1.75;;;11.40;88.00;;;13.04;60.37;96707.25;5013425;28;20417;-43
2023/10/22 02:48:23;;;;;;;2.50;2.05;;;11.30;88.10;;;13.02;60.36;96722.69;5004216;28;20502;-44
2023/10/22 02:50:51;;;;;;;3.05;1.98;;;11.30;88.50;;;13.03;60.30;96728.84;5013056;28;20050;-43
2023/10/22 02:53:19;;;;;;;2.50;1.73;;;11.30;87.90;;;13.02;60.47;96730.69;5011912;28;20473;-44
2023/10/22 02:55:47;;;;;;;4.32;2.03;;;11.30;87.80;;;13.02;60.38;96727.19;5013118;28;20034;-45
2023/10/22 02:58:14;;;;;;;4.67;2.77;;;11.30;88.00;;;13.00;60.43;96732.75;5011662;28;20053;-45
2023/10/22 03:00:42;;;;;;;3.58;2.20;;;11.30;87.70;;;13.03;60.06;96742.19;5011370;28;20050;-43
2023/10/22 03:03:10;;;;;;;3.85;2.42;;;11.30;87.50;;;12.98;60.30;96740.94;5010681;28;20054;-42
2023/10/22 03:05:37;;;;;;;4.50;2.25;;;11.20;87.50;;;12.93;60.33;96745.22;5012306;28;20473;-42
2023/10/22 03:08:05;;;;;;;4.65;2.20;;;11.20;87.40;;;12.90;60.27;96754.47;5013045;28;20042;-43
2023/10/22 03:10:37;;;;;;;2.97;2.00;;;11.20;88.00;;;12.89;60.28;96752.00;5012519;28;20053;-46
2023/10/22 03:13:06;;;;;;;7.15;3.00;;;11.10;87.40;;;12.90;60.21;96762.50;5005302;28;20038;-46
2023/10/22 03:15:34;;;;;;;4.03;2.20;;;11.10;87.70;;;12.90;60.16;96765.16;5011312;28;20038;-44
2023/10/22 03:18:02;;;;;;;3.47;2.10;;;11.20;86.80;;;12.86;60.06;96758.56;5011278;28;20417;-44
2023/10/22 03:20:33;;;;;;;4.10;2.20;;;11.20;86.80;;;12.91;59.98;96761.47;5012482;28;20045;-43
2023/10/22 03:23:03;;;;;;;2.57;1.97;;;11.20;86.10;;;12.91;59.85;96766.81;5012836;28;20045;-44
2023/10/22 03:25:31;;;;;;;2.55;1.70;;;11.20;86.50;;;12.88;59.89;96771.72;5012849;28;20041;-44
2023/10/22 03:28:00;;;;;;;4.45;2.38;;;11.20;86.10;;;12.84;59.83;96776.63;5011824;28;20426;-43
2023/10/22 03:30:28;;;;;;;2.57;1.87;;;11.20;85.80;;;12.89;59.81;96774.22;5011050;28;20049;-46
2023/10/22 03:32:55;;;;;;;3.45;1.73;;;11.20;85.80;;;12.95;59.42;96778.75;5012499;28;20072;-45
2023/10/22 03:35:24;;;;;;;3.13;1.50;;;11.30;85.50;;;12.93;59.22;96785.31;5012012;28;20046;-48
2023/10/22 03:37:52;;;;;;;2.78;2.13;;;11.30;84.60;;;12.87;59.53;96780.75;5019575;28;20050;-46
2023/10/22 03:40:19;;;;;;;2.42;1.80;;;11.20;85.00;;;12.88;59.31;96771.72;5012882;28;20056;-45
2023/10/22 03:42:48;;;;;;;6.18;2.67;;;11.10;84.80;;;12.81;59.16;96774.34;5012104;28;20061;-43
2023/10/22 03:45:15;;;;;;;2.55;1.40;;;11.10;85.10;;;12.75;59.58;96781.28;5012464;28;20049;-44
2023/10/22 03:47:43;;;;;;;4.47;2.07;;;11.10;85.20;;;12.78;59.46;96778.25;5011795;28;20049;-45
2023/10/22 03:50:11;;;;;;;3.72;1.95;;;11.10;85.00;;;12.77;59.35;96784.59;5012058;28;20489;-43
2023/10/22 03:52:39;;;;;;;3.70;2.10;;;11.10;84.80;;;12.71;59.39;96781.91;5011146;28;20065;-43
2023/10/22 03:55:11;;;;;;;2.53;1.67;;;11.00;85.40;;;12.71;59.55;96782.72;5011461;28;20050;-48
2023/10/22 03:57:38;;;;;;;3.20;1.65;;;11.00;85.60;;;12.72;59.53;96787.03;5012010;28;20525;-44
2023/10/22 04:00:07;;;;;;;2.78;1.88;;;11.10;85.50;;;12.69;59.81;96787.41;5004014;28;20034;-46
2023/10/22 04:02:38;;;;;;;2.47;2.22;;;11.00;85.00;;;12.72;59.48;96791.56;5013359;28;20122;-47
2023/10/22 04:05:07;;;;;;;3.25;2.00;;;11.00;85.30;;;12.71;59.79;96792.56;5003838;28;20065;-47
2023/10/22 04:07:37;;;;;;;3.72;2.10;;;11.00;85.60;;;12.69;59.61;96787.41;5012161;28;20038;-48
2023/10/22 04:10:09;;;;;;;3.00;2.08;;;11.00;85.10;;;12.67;59.53;96796.66;5010725;28;20585;-42
2023/10/22 04:12:37;;;;;;;2.67;1.80;;;11.00;85.80;;;12.69;59.45;96795.44;5011776;28;20045;-46
2023/10/22 04:15:06;;;;;;;4.00;2.20;;;11.00;85.30;;;12.61;59.95;96791.06;5011461;28;20295;-44
2023/10/22 04:17:34;;;;;;;4.25;3.38;;;11.00;85.80;;;12.66;59.62;96789.66;5011749;28;20501;-45
2023/10/22 04:20:02;;;;;;;4.82;2.10;;;11.00;85.90;;;12.58;60.07;96795.97;5011061;28;20060;-45
2023/10/22 04:22:30;;;;;;;3.85;1.70;;;10.90;85.60;;;12.60;59.63;96802.78;5010947;28;20418;-43
2023/10/22 04:24:58;;;;;;;2.63;1.73;;;11.00;85.00;;;12.54;59.88;96798.22;5011676;28;20054;-46
2023/10/22 04:27:25;;;;;;;1.75;1.40;;;11.00;84.90;;;12.57;59.51;96797.81;5011416;28;20060;-45
2023/10/22 04:29:53;;;;;;;2.63;1.63;;;11.00;83.80;;;12.63;59.45;96803.41;5011280;28;20046;-44
2023/10/22 04:32:20;;;;;;;2.70;1.53;;;11.00;84.10;;;12.54;59.50;96802.72;5011241;28;20057;-45
2023/10/22 04:34:48;;;;;;;2.00;1.60;;;11.00;82.70;;;12.60;59.34;96804.59;5011094;28;20050;-47
2023/10/22 04:37:17;;;;;;;2.78;1.42;;;11.00;83.30;;;12.61;59.04;96809.75;5011689;28;20050;-44
2023/10/22 04:39:44;;;;;;;4.17;1.57;;;11.10;82.60;;;12.59;59.01;96819.81;5011235;28;20046;-47
2023/10/22 04:42:12;;;;;;;3.40;1.63;;;11.10;81.20;;;12.63;58.67;96816.75;5011510;28;20046;-44
2023/10/22 04:44:42;;;;;;;1.77;1.20;;;11.10;81.80;;;12.61;58.61;96814.28;5009964;28;20045;-44
2023/10/22 04:47:10;;;;;;;1.23;1.10;;;11.10;81.90;;;12.62;58.31;96818.63;5011019;28;20050;-46
2023/10/22 04:49:37;;;;;;;2.22;1.23;;;11.10;81.10;;;12.68;58.07;96817.00;5010968;28;20038;-44
2023/10/22 04:52:09;;;;;;;3.13;1.20;;;11.10;80.50;;;12.70;58.25;96814.97;5011479;28;20041;-46
2023/10/22 04:54:37;;;;;;;2.33;1.30;;;11.10;80.70;;;12.56;58.06;96819.38;5011100;28;20045;-48
2023/10/22 04:57:05;;;;;;;4.05;1.48;;;11.00;80.30;;;12.49;58.40;96826.53;5011058;28;20050;-42
2023/10/22 04:59:33;;;;;;;1.90;1.20;;;11.00;80.70;;;12.46;58.32;96827.72;5010984;28;20053;-44
2023/10/22 05:02:00;;;;;;;1.30;1.20;;;11.00;80.60;;;12.49;58.46;96829.19;5011100;28;20038;-45
2023/10/22 05:04:28;;;;;;;1.85;1.50;;;11.00;80.60;;;12.43;58.48;96829.94;5011175;28;20061;-46
2023/10/22 05:06:57;;;;;;;2.88;1.65;;;11.00;80.30;;;12.46;58.32;96838.38;5010976;28;20065;-48
2023/10/22 05:09:24;;;;;;;4.17;1.33;;;11.00;80.30;;;12.51;58.12;96841.31;5010653;28;20552;-43
2023/10/22 05:11:52;;;;;;;2.70;1.23;;;11.10;80.40;;;12.57;57.83;96847.72;5011097;28;20412;-45
2023/10/22 05:14:20;;;;;;;5.43;1.43;;;11.10;80.10;;;12.56;58.21;96840.72;5010888;28;20050;-45
2023/10/22 05:16:47;;;;;;;1.77;1.67;;;11.10;79.70;;;12.58;57.69;96836.00;5010755;28;20057;-45
2023/10/22 05:19:15;;;;;;;3.80;1.05;;;11.10;79.00;;;12.47;57.71;96849.91;5010831;28;20049;-47
2023/10/22 05:21:43;;;;;;;3.20;1.30;;;11.00;79.70;;;12.51;57.56;96840.50;5010105;28;20489;-45
2023/10/22 05:24:10;;;;;;;0.70;0.70;;;10.90;79.80;;;12.49;57.51;96845.22;5011042;28;20398;-49
2023/10/22 05:26:39;;;;;;;2.10;1.33;;;11.00;79.70;;;12.50;57.60;96845.00;5012228;28;20421;-46
2023/10/22 05:29:07;;;;;;;2.57;1.43;;;10.90;79.40;;;12.45;57.51;96851.94;5014573;28;20045;-46
2023/10/22 05:31:35;;;;;;;2.97;1.30;;;10.90;79.50;;;12.44;57.67;96852.97;5014917;28;20053;-45
2023/10/22 05:34:02;;;;;;;3.25;1.10;;;10.90;79.10;;;12.41;57.46;96856.84;5014629;28;20065;-46
2023/10/22 05:36:31;;;;;;;4.85;1.13;;;10.80;79.30;;;12.42;57.36;96855.81;5014480;28;20508;-46
2023/10/22 05:39:00;;;;;;;2.30;1.17;;;10.90;79.80;;;12.46;57.74;96861.59;5014121;28;20046;-44
2023/10/22 05:41:28;;;;;;;1.60;1.40;;;10.80;79.50;;;12.45;57.15;96858.09;5014716;28;20037;-43
2023/10/22 05:44:01;;;;;;;3.97;1.60;;;10.80;79.20;;;12.47;57.15;96861.41;5014630;28;20046;-46
2023/10/22 05:46:32;;;;;;;4.18;2.28;;;10.80;80.00;;;12.49;57.14;96871.91;5021322;28;20045;-43
2023/10/22 05:49:03;;;;;;;2.97;2.67;;;10.80;80.20;;;12.48;56.93;96870.25;5017698;28;20282;-45
2023/10/22 05:51:32;;;;;;;4.80;1.70;;;10.70;81.10;;;12.47;56.99;96871.28;5013859;28;20050;-47
2023/10/22 05:54:03;;;;;;;3.58;1.70;;;10.70;80.40;;;12.50;57.14;96871.69;5013631;28;20046;-46
2023/10/22 05:56:32;;;;;;;4.93;1.50;;;10.70;80.50;;;12.46;57.05;96882.94;5013572;28;20049;-44
2023/10/22 05:59:04;;;;;;;3.42;1.42;;;10.70;80.70;;;12.46;57.12;96883.78;5013460;28;20049;-46
2023/10/22 06:01:32;;;;;;;2.33;1.50;;;10.70;80.60;;;12.39;57.13;96885.56;5012998;28;20045;-46
2023/10/22 06:03:59;;;;;;;3.93;1.23;;;10.60;80.80;;;12.38;57.16;96890.06;5013210;28;20049;-45
2023/10/22 06:06:27;;;;;;;3.53;1.60;;;10.60;81.30;;;12.41;57.17;96892.38;5013509;28;20038;-43
2023/10/22 06:08:55;;;;;;;2.50;1.10;;;10.70;81.00;;;12.39;57.05;96897.06;5011847;28;20053;-46
2023/10/22 06:11:22;;;;;;;3.40;1.10;;;10.60;80.40;;;12.39;57.08;96907.75;5011554;28;20054;-48
2023/10/22 06:13:50;;;;;;;1.50;1.05;;;10.60;80.60;;;12.34;57.23;96912.81;5013117;28;20045;-49
2023/10/22 06:16:17;;;;;;;3.43;1.30;;;10.50;81.30;;;12.32;57.26;96904.19;5012754;28;20034;-46
2023/10/22 06:18:46;;;;;;;3.70;1.20;;;10.50;81.50;;;12.31;57.36;96907.03;5009363;28;20367;-44
2023/10/22 06:21:15;;;;;;;1.87;1.27;;;10.50;81.20;;;12.26;57.39;96909.47;5012837;28;20037;-43
2023/10/22 06:23:43;;;;;;;1.70;1.03;;;10.40;81.80;;;12.28;57.17;96916.25;5012830;28;20053;-45
2023/10/22 06:26:12;;;;;;;2.90;1.37;;;10.40;81.80;;;12.27;57.35;96916.44;5012660;28;20046;-44
2023/10/22 06:28:41;;;;;;;2.37;1.10;;;10.40;82.10;;;12.26;57.57;96920.13;5012222;28;20489;-43
2023/10/22 06:31:12;;;;;;;3.17;1.30;;;10.40;81.90;;;12.25;57.38;96924.63;5012377;28;20473;-45
2023/10/22 06:33:41;;;;;;;2.35;1.13;;;10.40;82.20;;;12.23;57.63;96921.31;5012754;28;20497;-43
2023/10/22 06:36:18;;;;;;;1.83;1.10;;;10.40;81.90;;;12.24;57.65;96930.19;5013214;28;20045;-46
2023/10/22 06:38:48;;;;;;;2.33;1.00;;;10.40;82.30;;;12.25;57.70;96931.81;5013218;28;20049;-44
2023/10/22 06:41:20;;;;;;;3.23;1.03;;;10.40;81.90;;;12.21;57.58;96939.38;5013319;28;20046;-45
2023/10/22 06:43:48;;;;;;;1.30;1.00;;;10.40;82.30;;;12.22;58.08;96933.03;5013382;28;20445;-44
2023/10/22 06:46:19;;;;;;;2.75;2.55;;;10.40;82.60;;;12.24;57.60;96938.19;5013120;28;20693;-44
2023/10/22 06:48:48;;;;;;;2.73;1.60;;;10.40;82.20;;;12.26;57.87;96942.31;5013378;28;20065;-46
2023/10/22 06:51:17;;;;;;;1.40;1.13;;;10.50;82.10;;;12.30;57.78;96940.09;5013073;28;20053;-46
2023/10/22 06:53:46;;;;;;;3.70;1.60;;;10.50;81.90;;;12.38;57.63;96945.31;5013293;28;20053;-49
2023/10/22 06:56:16;;;;;;;3.03;1.40;;;10.70;81.60;;;12.42;57.73;96949.25;5012907;28;20053;-45
2023/10/22 06:58:47;;;;;;;4.47;1.80;;;10.70;81.00;;;12.47;57.08;96948.69;5012796;28;20118;-44
2023/10/22 07:01:15;;;;;;;4.73;1.70;;;10.70;81.00;;;12.44;57.67;96955.22;5012906;28;20073;-44
2023/10/22 07:03:45;;;;;;;4.87;1.97;;;10.80;80.80;;;12.46;57.55;96950.50;5012799;28;20094;-46
2023/10/22 07:06:14;;;;;;;3.30;1.83;;;10.80;80.50;;;12.50;57.52;96954.44;5012863;28;20435;-48
2023/10/22 07:08:43;;;;;;;2.25;1.60;;;10.90;80.20;;;12.54;57.52;96957.56;5019481;28;20060;-45
2023/10/22 07:11:11;;;;;;;3.85;1.20;;;10.90;79.90;;;12.56;57.46;96956.38;5012916;28;20042;-47
2023/10/22 07:13:39;;;;;;;3.33;1.10;;;11.00;79.60;;;12.60;57.58;96964.81;5012253;28;20045;-43
2023/10/22 07:16:07;;;;;;;1.58;1.00;;;11.10;78.90;;;12.57;57.42;96965.22;5012590;28;20037;-46
2023/10/22 07:18:35;;;;;;;2.33;1.10;;;11.10;79.00;;;12.67;57.28;96960.38;5012509;28;20038;-42
2023/10/22 07:21:03;;;;;;;3.22;1.00;;;11.20;79.20;;;12.69;57.44;96969.00;5012707;28;20409;-43
2023/10/22 07:23:31;;;;;;;3.50;1.47;;;11.20;78.70;;;12.77;57.43;96974.22;5013015;28;20038;-45
2023/10/22 07:26:00;;;;;;;3.50;1.10;;;11.30;79.00;;;12.81;57.57;96972.00;5019371;28;20042;-44
2023/10/22 07:28:27;;;;;;;4.47;2.17;;;11.40;78.50;;;12.91;57.26;96975.19;5012720;28;20045;-42
2023/10/22 07:30:55;;;;;;;6.17;1.80;;;11.50;78.70;;;12.99;57.46;96971.56;5012143;28;20045;-42
2023/10/22 07:33:24;;;;;;;3.58;1.75;;;11.60;78.20;;;13.02;57.27;96973.00;5012431;28;20501;-44
2023/10/22 07:36:07;;;;;;;4.53;1.27;;;11.60;78.00;;;13.05;57.26;96983.31;5018503;28;20117;-46
2023/10/22 07:38:37;;;;;;;3.45;2.00;;;11.70;77.00;;;13.07;57.09;96983.97;5012256;28;20053;-46
2023/10/22 07:41:05;;;;;;;2.83;1.27;;;11.70;77.20;;;13.14;57.00;96990.16;5012501;28;20212;-46
2023/10/22 07:43:32;;;;;;;3.65;1.10;;;11.70;77.00;;;13.20;56.77;96990.22;5012852;28;20409;-45
2023/10/22 07:46:01;;;;;;;1.83;1.13;;;11.80;76.60;;;13.24;56.62;96989.81;5011051;28;20446;-45
2023/10/22 07:48:29;;;;;;;3.17;1.90;;;11.90;75.80;;;13.29;56.23;96995.44;5011482;28;20042;-43
2023/10/22 07:51:17;;;;;;;3.92;1.15;;;12.00;75.50;;;13.33;56.37;96989.53;5011598;28;20049;-44
2023/10/22 07:53:46;;;;;;;2.65;1.00;;;12.10;74.90;;;13.43;56.22;97002.53;5012280;28;20042;-44
2023/10/22 07:56:18;;;;;;;3.13;1.20;;;12.10;74.90;;;13.45;56.27;96999.69;5019237;28;20053;-43
2023/10/22 07:58:46;;;;;;;1.77;1.20;;;12.20;74.50;;;13.47;56.15;97000.31;5011795;28;20046;-44
2023/10/22 08:01:13;;;;;;;3.22;0.98;;;12.20;74.40;;;13.54;55.94;96994.00;5011875;28;20068;-46
2023/10/22 08:03:41;;;;;;;2.28;1.20;;;12.30;74.50;;;13.55;55.82;97002.81;5012118;28;20049;-42
2023/10/22 08:06:09;;;;;;;5.15;1.30;;;12.30;73.90;;;13.63;55.73;97009.88;5011755;28;20048;-42
2023/10/22 08:08:36;;;;;;;3.58;1.45;;;12.40;73.20;;;13.67;55.38;97017.31;5011522;28;20046;-43
2023/10/22 08:11:05;;;;;;;5.15;1.60;;;12.50;73.00;;;13.70;55.06;97016.91;5011790;28;20100;-43
2023/10/22 08:13:33;;;;;;;4.10;1.83;;;12.50;72.20;;;13.76;55.07;97015.31;5018399;28;20049;-43
2023/10/22 08:16:03;;;;;;;2.70;1.33;;;12.60;71.30;;;13.81;54.94;97018.22;5010678;28;20065;-43
2023/10/22 08:18:31;;;;;;;3.35;1.00;;;12.60;70.40;;;13.88;54.86;97012.91;5010611;28;20049;-45
2023/10/22 08:21:03;;;;;;;4.72;1.35;;;12.70;71.70;;;13.98;54.40;97016.06;5010738;28;20049;-43
2023/10/22 08:23:31;;;;;;;2.47;1.75;;;12.80;69.30;;;14.01;54.32;97014.84;5017821;28;20056;-43
2023/10/22 08:25:59;;;;;;;1.75;1.30;;;12.80;69.30;;;14.09;54.54;97017.34;5007293;28;20046;-45
2023/10/22 08:28:26;;;;;;;5.13;2.28;;;12.90;70.10;;;14.15;54.42;97020.06;5009703;28;20053;-44
2023/10/22 08:30:54;;;;;;;4.95;1.80;;;13.00;71.20;;;14.22;54.20;97024.63;5009608;28;20394;-43
2023/10/22 08:33:22;;;;;;;1.63;1.05;;;13.00;70.40;;;14.26;53.92;97023.19;5009822;28;20053;-45
2023/10/22 08:35:49;;;;;;;4.38;1.55;;;13.10;70.30;;;14.30;53.96;97029.78;5010367;28;20041;-44
2023/10/22 08:38:17;;;;;;;3.40;1.25;;;13.20;70.30;;;14.35;53.69;97030.84;5010242;28;20512;-42
2023/10/22 08:40:45;;;;;;;4.22;0.95;;;13.30;69.90;;;14.42;53.70;97033.53;5010387;28;20413;-47
2023/10/22 08:43:17;;;;;;;4.35;2.67;;;13.30;69.30;;;14.51;53.38;97043.06;5017405;28;20042;-47
2023/10/22 08:45:49;;;;;;;3.25;1.00;;;13.40;68.60;;;14.50;52.98;97036.06;5010633;28;20042;-48
2023/10/22 08:48:18;;;;;;;5.72;1.73;;;13.30;67.00;;;14.55;52.77;97048.84;5010225;28;20050;-47
2023/10/22 08:50:49;;;;;;;3.63;1.25;;;13.40;68.20;;;14.58;52.96;97043.13;5010020;28;20508;-47
2023/10/22 08:53:16;;;;;;;6.72;1.52;;;13.40;68.30;;;14.55;52.48;97046.97;5010464;28;20505;-44
2023/10/22 08:55:47;;;;;;;2.47;1.02;;;13.40;67.20;;;14.63;52.62;97043.31;5010542;28;20042;-44
2023/10/22 08:58:19;;;;;;;1.90;0.80;;;13.50;67.80;;;14.64;52.22;97047.66;5009987;28;20046;-44
2023/10/22 09:00:49;;;;;;;3.40;1.15;;;13.50;67.10;;;14.54;51.96;97044.53;5008868;28;20045;-46
2023/10/22 09:03:19;;;;;;;6.53;1.00;;;13.50;65.20;;;14.63;52.21;97055.91;5010042;28;20413;-46
2023/10/22 09:05:48;;;;;;;4.97;0.95;;;13.50;67.10;;;14.75;52.16;97048.91;5010257;28;20053;-47
2023/10/22 09:08:16;;;;;;;1.73;0.80;;;13.60;67.20;;;14.81;52.17;97050.81;5016823;28;20049;-46
2023/10/22 09:10:43;;;;;;;4.03;1.60;;;13.70;67.40;;;14.83;52.11;97056.78;5009780;28;20042;-45
2023/10/22 09:13:16;;;;;;;4.53;1.65;;;13.70;66.70;;;14.87;51.78;97055.38;4974275;28;1043400;-44
2023/10/22 09:15:47;;;;;;;3.00;1.45;;;13.70;66.30;;;14.88;51.44;97061.53;5010751;28;20086;-45
2023/10/22 09:18:16;;;;;;;4.10;1.55;;;13.80;63.80;;;14.98;51.33;97053.94;5010977;28;20042;-45
2023/10/22 09:20:46;;;;;;;6.20;1.70;;;13.90;65.60;;;15.02;51.21;97057.84;5010641;28;20048;-44
2023/10/22 09:23:20;;;;;;;4.75;2.20;;;13.90;65.00;;;15.12;51.66;97052.94;5010944;28;20054;-48
2023/10/22 09:25:50;;;;;;;4.63;1.33;;;14.00;65.90;;;15.12;50.92;97052.09;5016361;28;20041;-45
2023/10/22 09:28:29;;;;;;;2.78;1.23;;;14.10;64.20;;;15.12;50.33;97055.63;5016755;28;20382;-47
2023/10/22 09:31:02;;;;;;;3.20;1.45;;;14.10;62.00;;;15.25;50.27;97048.59;5016578;28;20042;-42
2023/10/22 09:33:42;;;;;;;3.20;1.10;;;14.10;63.30;;;15.34;50.43;97055.41;5017206;28;20506;-43
2023/10/22 09:36:12;;;;;;;4.32;2.03;;;14.20;63.70;;;15.40;50.30;97051.91;5009393;28;20056;-44
2023/10/22 09:38:46;;;;;;;6.38;1.85;;;14.30;64.10;;;15.42;48.93;97057.88;5008299;28;20037;-42
2023/10/22 09:41:31;;;;;;;4.45;2.67;;;14.40;60.30;;;15.46;49.78;97052.94;5010507;28;20509;-45
2023/10/22 09:44:02;;;;;;;3.30;1.25;;;14.40;61.80;;;15.58;49.48;97061.19;5010919;28;20038;-42
2023/10/22 09:46:33;;;;;;;5.05;2.45;;;14.40;61.50;;;15.67;49.26;97057.28;5008809;28;20050;-42
2023/10/22 09:49:07;;;;;;;3.53;2.25;;;14.60;62.10;;;15.74;49.14;97069.69;5010455;28;20042;-45
2023/10/22 09:51:36;;;;;;;6.32;1.80;;;14.70;61.70;;;15.85;48.90;97064.69;5010786;28;20048;-44
2023/10/22 09:54:06;;;;;;;5.40;2.42;;;14.70;60.80;;;15.87;48.34;97060.78;5009721;28;20042;-43
2023/10/22 09:56:50;;;;;;;4.28;2.08;;;14.70;60.10;;;15.99;48.59;97060.13;5017770;28;20137;-43
2023/10/22 09:59:22;;;;;;;6.80;2.95;;;14.90;59.80;;;16.07;48.56;97062.59;5017235;28;20509;-44
2023/10/22 10:01:50;;;;;;;6.93;3.53;;;15.00;60.60;;;16.16;48.50;97068.56;5010967;28;20045;-45
2023/10/22 10:04:22;;;;;;;3.25;1.60;;;15.10;60.70;;;16.22;48.37;97057.78;5011017;28;20258;-42
2023/10/22 10:06:52;;;;;;;5.70;1.58;;;15.20;59.70;;;16.30;48.51;97065.66;5017640;28;20053;-42
2023/10/22 10:09:23;;;;;;;2.60;1.45;;;15.30;60.50;;;16.40;48.76;97067.88;5017117;28;20046;-42
2023/10/22 10:11:52;;;;;;;5.40;2.17;;;15.40;60.40;;;16.45;47.93;97073.44;5017892;28;20048;-43
2023/10/22 10:14:49;;;;;;;5.43;1.30;;;15.40;59.10;;;16.33;44.31;97081.31;5020869;28;20053;-42
2023/10/22 10:17:19;;;;;;;5.88;2.58;;;15.50;53.20;;;16.45;45.79;97064.53;5012332;28;20065;-45
2023/10/22 10:19:48;;;;;;;7.35;2.30;;;15.40;55.70;;;16.51;45.74;97067.19;5013743;28;20048;-42
2023/10/22 10:22:39;;;;;;;5.07;2.10;;;15.50;55.40;;;16.58;46.18;97069.06;5013645;28;20056;-44
2023/10/22 10:25:32;;;;;;;4.15;1.75;;;15.50;54.50;;;16.65;46.42;97065.31;5013922;28;20469;-44
2023/10/22 10:28:05;;;;;;;2.88;1.08;;;15.60;54.90;;;16.67;45.40;97065.91;5008276;28;20041;-45